createdAt,value
2019-05-18T00:01:38.735Z,18.00
2019-05-18T00:04:07.394Z,18.00
2019-05-18T00:06:36.066Z,18.00
2019-05-18T00:09:05.852Z,18.00
2019-05-18T00:11:34.732Z,18.00
2019-05-18T00:14:07.537Z,17.90
2019-05-18T00:16:38.082Z,17.90
2019-05-18T00:19:06.891Z,17.90
2019-05-18T00:21:35.262Z,17.90
2019-05-18T00:24:04.902Z,17.90
2019-05-18T00:26:33.286Z,17.80
2019-05-18T00:29:01.962Z,17.80
2019-05-18T00:31:30.637Z,17.80
2019-05-18T00:33:59.368Z,17.80
2019-05-18T00:36:28.660Z,17.80
2019-05-18T00:38:57.611Z,17.70
2019-05-18T00:41:26.333Z,17.70
2019-05-18T00:43:54.724Z,17.70
2019-05-18T00:46:23.118Z,17.70
2019-05-18T00:48:52.135Z,17.70
2019-05-18T00:51:23.315Z,17.70
2019-05-18T00:53:51.118Z,17.60
2019-05-18T00:56:21.560Z,17.60
2019-05-18T00:58:50.185Z,17.50
2019-05-18T01:01:18.942Z,17.50
2019-05-18T01:03:47.260Z,17.40
2019-05-18T01:06:15.973Z,17.50
2019-05-18T01:08:45.005Z,17.40
2019-05-18T01:11:13.676Z,17.40
2019-05-18T01:13:42.301Z,17.40
2019-05-18T01:16:11.950Z,17.30
2019-05-18T01:18:42.463Z,17.40
2019-05-18T01:21:11.139Z,17.30
2019-05-18T01:23:39.928Z,17.30
2019-05-18T01:26:08.197Z,17.30
2019-05-18T01:28:36.588Z,17.30
2019-05-18T01:31:05.237Z,17.20
2019-05-18T01:33:33.989Z,17.20
2019-05-18T01:36:02.347Z,17.20
2019-05-18T01:38:31.102Z,17.20
2019-05-18T01:40:59.706Z,17.20
2019-05-18T01:43:27.966Z,17.20
2019-05-18T01:45:56.861Z,17.20
2019-05-18T01:48:25.168Z,17.10
2019-05-18T01:50:53.543Z,17.10
2019-05-18T01:53:21.922Z,17.00
2019-05-18T01:55:50.662Z,17.00
2019-05-18T01:58:20.598Z,17.00
2019-05-18T02:00:48.918Z,17.00
2019-05-18T02:03:17.966Z,17.00
2019-05-18T02:05:46.625Z,17.00
2019-05-18T02:08:14.986Z,17.00
2019-05-18T02:10:43.663Z,17.00
2019-05-18T02:13:12.385Z,17.00
2019-05-18T02:15:41.027Z,17.00
2019-05-18T02:18:10.374Z,16.90
2019-05-18T02:20:40.818Z,16.90
2019-05-18T02:23:09.265Z,16.90
2019-05-18T02:25:37.994Z,16.80
2019-05-18T02:28:07.048Z,16.80
2019-05-18T02:30:35.655Z,16.80
2019-05-18T02:33:04.086Z,16.90
2019-05-18T02:35:32.697Z,16.80
2019-05-18T02:38:14.495Z,16.80
2019-05-18T02:40:43.533Z,16.80
2019-05-18T02:43:12.944Z,16.80
2019-05-18T02:45:41.250Z,16.80
2019-05-18T02:48:09.862Z,16.80
2019-05-18T02:50:38.612Z,16.80
2019-05-18T02:53:07.326Z,16.70
2019-05-18T02:55:36.064Z,16.80
2019-05-18T02:58:05.041Z,16.80
2019-05-18T03:00:33.701Z,16.80
2019-05-18T03:03:04.135Z,16.80
2019-05-18T03:05:32.962Z,16.80
2019-05-18T03:08:01.802Z,16.80
2019-05-18T03:10:30.640Z,16.80
2019-05-18T03:12:59.249Z,16.80
2019-05-18T03:15:27.702Z,16.80
2019-05-18T03:17:56.066Z,16.80
2019-05-18T03:20:25.941Z,16.80
2019-05-18T03:22:56.902Z,16.80
2019-05-18T03:25:25.192Z,16.80
2019-05-18T03:27:53.615Z,16.80
2019-05-18T03:30:22.251Z,16.80
2019-05-18T03:32:51.361Z,16.80
2019-05-18T03:35:19.889Z,16.80
2019-05-18T03:37:48.710Z,16.80
2019-05-18T03:40:17.510Z,16.80
2019-05-18T03:42:45.987Z,16.80
2019-05-18T03:45:15.009Z,16.70
2019-05-18T03:47:43.725Z,16.70
2019-05-18T03:50:12.297Z,16.80
2019-05-18T03:52:40.776Z,16.80
2019-05-18T03:55:09.100Z,16.80
2019-05-18T03:57:37.840Z,16.70
2019-05-18T04:00:07.036Z,16.80
2019-05-18T04:02:35.466Z,16.80
2019-05-18T04:05:04.198Z,16.80
2019-05-18T04:07:33.182Z,16.80
2019-05-18T04:10:02.173Z,16.90
2019-05-18T04:12:30.840Z,16.80
2019-05-18T04:14:59.591Z,16.80
2019-05-18T04:17:27.941Z,16.90
2019-05-18T04:19:56.608Z,16.90
2019-05-18T04:22:26.538Z,16.90
2019-05-18T04:24:56.612Z,16.90
2019-05-18T04:27:25.290Z,16.90
2019-05-18T04:29:53.815Z,16.80
2019-05-18T04:32:22.530Z,16.60
2019-05-18T04:34:51.216Z,16.30
2019-05-18T04:37:19.841Z,16.10
2019-05-18T04:39:48.551Z,16.00
2019-05-18T04:42:16.936Z,15.90
2019-05-18T04:44:45.933Z,15.90
2019-05-18T04:47:14.301Z,15.80
2019-05-18T04:49:43.002Z,15.90
2019-05-18T04:52:11.639Z,15.80
2019-05-18T04:54:40.407Z,15.60
2019-05-18T04:57:09.070Z,15.60
2019-05-18T04:59:37.768Z,15.50
2019-05-18T05:02:06.389Z,15.50
2019-05-18T05:04:35.100Z,15.60
2019-05-18T05:07:03.501Z,15.60
2019-05-18T05:09:32.471Z,15.70
2019-05-18T05:12:01.663Z,15.60
2019-05-18T05:14:30.496Z,15.50
2019-05-18T05:16:59.150Z,15.60
2019-05-18T05:19:28.099Z,15.60
2019-05-18T05:21:56.547Z,15.60
2019-05-18T05:24:25.519Z,15.60
2019-05-18T05:26:56.081Z,15.60
2019-05-18T05:29:24.424Z,15.70
2019-05-18T05:31:53.109Z,15.70
2019-05-18T05:34:21.806Z,15.70
2019-05-18T05:36:50.923Z,15.70
2019-05-18T05:39:19.496Z,15.60
2019-05-18T05:41:48.109Z,15.60
2019-05-18T05:44:16.609Z,15.60
2019-05-18T05:46:45.569Z,15.60
2019-05-18T05:49:14.424Z,15.50
2019-05-18T05:51:42.937Z,15.50
2019-05-18T05:54:12.833Z,15.50
2019-05-18T05:56:42.025Z,15.40
2019-05-18T05:59:10.864Z,15.40
2019-05-18T06:01:39.239Z,15.50
2019-05-18T06:04:07.942Z,15.60
2019-05-18T06:06:36.581Z,15.70
2019-05-18T06:09:07.406Z,15.80
2019-05-18T06:11:36.424Z,15.90
2019-05-18T06:14:04.768Z,16.00
2019-05-18T06:16:33.214Z,16.10
2019-05-18T06:19:02.791Z,16.10
2019-05-18T06:21:31.491Z,16.20
2019-05-18T06:23:59.835Z,16.20
2019-05-18T06:26:28.832Z,16.20
2019-05-18T06:29:00.110Z,16.20
2019-05-18T06:31:28.963Z,16.20
2019-05-18T06:33:57.505Z,16.30
2019-05-18T06:36:26.027Z,16.30
2019-05-18T06:38:54.714Z,16.30
2019-05-18T06:41:23.158Z,16.40
2019-05-18T06:43:51.784Z,16.40
2019-05-18T06:46:20.216Z,16.40
2019-05-18T06:48:48.872Z,16.50
2019-05-18T06:51:17.692Z,16.40
2019-05-18T06:53:47.993Z,16.40
2019-05-18T06:56:17.453Z,16.50
2019-05-18T06:58:46.939Z,16.50
2019-05-18T07:01:15.781Z,16.50
2019-05-18T07:03:45.142Z,16.40
2019-05-18T07:06:13.710Z,16.50
2019-05-18T07:08:42.385Z,16.50
2019-05-18T07:11:10.679Z,16.50
2019-05-18T07:13:39.687Z,16.50
2019-05-18T07:16:08.455Z,16.50
2019-05-18T07:18:37.163Z,16.60
2019-05-18T07:21:05.804Z,16.60
2019-05-18T07:23:34.764Z,16.70
2019-05-18T07:26:03.180Z,16.80
2019-05-18T07:28:32.172Z,16.80
2019-05-18T07:31:02.661Z,16.90
2019-05-18T07:33:31.647Z,16.90
2019-05-18T07:36:00.378Z,17.00
2019-05-18T07:38:30.296Z,16.90
2019-05-18T07:40:58.961Z,16.80
2019-05-18T07:43:28.015Z,16.70
2019-05-18T07:45:56.355Z,16.80
2019-05-18T07:48:24.655Z,16.90
2019-05-18T07:50:53.117Z,17.20
2019-05-18T07:53:21.770Z,17.30
2019-05-18T07:55:50.299Z,17.40
2019-05-18T07:58:19.505Z,17.40
2019-05-18T08:00:48.207Z,17.40
2019-05-18T08:03:16.998Z,17.40
2019-05-18T08:05:46.178Z,17.30
2019-05-18T08:08:14.615Z,17.00
2019-05-18T08:10:44.479Z,16.90
2019-05-18T08:13:12.849Z,16.80
2019-05-18T08:15:41.841Z,16.70
2019-05-18T08:18:10.494Z,16.70
2019-05-18T08:20:39.144Z,16.70
2019-05-18T08:23:07.596Z,16.70
2019-05-18T08:25:35.952Z,16.70
2019-05-18T08:28:06.197Z,16.70
2019-05-18T08:30:36.089Z,16.80
2019-05-18T08:33:05.915Z,16.90
2019-05-18T08:35:34.691Z,16.90
2019-05-18T08:38:04.902Z,17.00
2019-05-18T08:40:33.329Z,17.10
2019-05-18T08:43:02.018Z,17.30
2019-05-18T08:45:30.383Z,17.40
2019-05-18T08:47:59.080Z,17.60
2019-05-18T08:50:27.736Z,17.80
2019-05-18T08:52:56.779Z,17.90
2019-05-18T08:55:25.161Z,18.20
2019-05-18T08:57:57.576Z,18.40
2019-05-18T09:00:26.262Z,18.80
2019-05-18T09:02:56.383Z,19.30
2019-05-18T09:05:24.867Z,19.80
2019-05-18T09:07:53.478Z,20.40
2019-05-18T09:10:22.199Z,21.10
2019-05-18T09:12:51.134Z,21.40
2019-05-18T09:15:20.201Z,21.60
2019-05-18T09:17:49.439Z,21.50
2019-05-18T09:20:18.736Z,21.50
2019-05-18T09:22:47.216Z,21.50
2019-05-18T09:25:15.959Z,21.60
2019-05-18T09:27:44.851Z,21.70
2019-05-18T09:30:13.568Z,21.90
2019-05-18T09:32:42.509Z,21.90
2019-05-18T09:35:13.647Z,21.80
2019-05-18T09:37:42.312Z,21.70
2019-05-18T09:40:11.599Z,21.60
2019-05-18T09:42:40.599Z,21.60
2019-05-18T09:45:10.130Z,21.90
2019-05-18T09:47:38.955Z,22.10
2019-05-18T09:50:08.353Z,22.40
2019-05-18T09:52:44.953Z,22.80
2019-05-18T09:55:08.440Z,23.20
2019-05-18T09:57:37.706Z,23.70
2019-05-18T10:00:07.247Z,24.20
2019-05-18T10:02:36.279Z,24.50
2019-05-18T10:05:06.133Z,24.70
2019-05-18T10:07:34.868Z,24.80
2019-05-18T10:10:03.948Z,25.20
2019-05-18T10:12:32.561Z,25.70
2019-05-18T10:15:02.225Z,26.30
2019-05-18T10:17:30.809Z,26.20
2019-05-18T10:19:59.882Z,25.90
2019-05-18T10:22:28.837Z,25.60
2019-05-18T10:24:57.545Z,25.20
2019-05-18T10:27:26.415Z,24.80
2019-05-18T10:29:55.176Z,24.70
2019-05-18T10:32:23.951Z,24.50
2019-05-18T10:34:52.590Z,24.50
2019-05-18T10:37:22.885Z,24.60
2019-05-18T10:39:51.499Z,24.70
2019-05-18T10:42:19.892Z,25.10
2019-05-18T10:44:48.581Z,25.30
2019-05-18T10:47:17.509Z,25.50
2019-05-18T10:49:46.200Z,26.00
2019-05-18T10:52:14.912Z,26.20
2019-05-18T10:54:43.568Z,26.60
2019-05-18T10:57:12.317Z,26.30
2019-05-18T10:59:41.234Z,26.10
2019-05-18T11:02:09.705Z,25.90
2019-05-18T11:04:38.095Z,25.60
2019-05-18T11:07:06.774Z,25.70
2019-05-18T11:09:35.082Z,25.60
2019-05-18T11:12:04.417Z,25.50
2019-05-18T11:14:34.040Z,25.30
2019-05-18T11:17:03.035Z,25.40
2019-05-18T11:19:31.993Z,25.40
2019-05-18T11:22:01.309Z,25.60
2019-05-18T11:24:29.950Z,26.20
2019-05-18T11:26:58.416Z,26.90
2019-05-18T11:29:27.077Z,27.60
2019-05-18T11:31:55.731Z,28.60
2019-05-18T11:34:24.471Z,29.20
2019-05-18T11:36:53.168Z,29.40
2019-05-18T11:39:23.205Z,29.40
2019-05-18T11:41:51.679Z,29.10
2019-05-18T11:44:20.129Z,28.80
2019-05-18T11:46:48.805Z,28.70
2019-05-18T11:49:17.478Z,28.60
2019-05-18T11:51:46.204Z,28.10
2019-05-18T11:54:14.782Z,28.00
2019-05-18T11:56:43.228Z,27.80
2019-05-18T11:59:15.484Z,28.20
2019-05-18T12:01:42.452Z,28.30
2019-05-18T12:04:10.811Z,28.20
2019-05-18T12:06:39.272Z,28.90
2019-05-18T12:09:07.905Z,29.00
2019-05-18T12:11:36.936Z,28.80
2019-05-18T12:14:05.573Z,28.50
2019-05-18T12:16:34.081Z,28.20
2019-05-18T12:19:03.855Z,27.90
2019-05-18T12:21:32.664Z,27.70
2019-05-18T12:24:14.137Z,27.40
2019-05-18T12:26:31.772Z,27.50
2019-05-18T12:29:00.463Z,27.50
2019-05-18T12:31:29.217Z,27.60
2019-05-18T12:33:58.153Z,27.70
2019-05-18T12:36:26.548Z,28.10
2019-05-18T12:38:56.733Z,28.70
2019-05-18T12:41:29.880Z,29.20
2019-05-18T12:43:58.656Z,29.50
2019-05-18T12:46:27.167Z,29.80
2019-05-18T12:48:56.121Z,29.90
2019-05-18T12:51:24.770Z,30.30
2019-05-18T12:53:53.270Z,30.20
2019-05-18T12:56:21.863Z,30.10
2019-05-18T12:58:51.514Z,30.10
2019-05-18T13:01:20.165Z,30.10
2019-05-18T13:03:48.819Z,30.00
2019-05-18T13:06:17.926Z,30.20
2019-05-18T13:08:46.528Z,30.20
2019-05-18T13:11:15.310Z,30.30
2019-05-18T13:13:44.223Z,30.30
2019-05-18T13:16:12.906Z,30.40
2019-05-18T13:18:41.583Z,30.60
2019-05-18T13:21:11.179Z,30.80
2019-05-18T13:23:39.589Z,30.90
2019-05-18T13:26:08.545Z,30.90
2019-05-18T13:28:37.598Z,30.80
2019-05-18T13:31:06.382Z,30.60
2019-05-18T13:33:34.872Z,30.20
2019-05-18T13:36:05.484Z,29.90
2019-05-18T13:38:34.464Z,29.70
2019-05-18T13:41:04.715Z,29.80
2019-05-18T13:43:35.322Z,29.70
2019-05-18T13:46:03.878Z,29.50
2019-05-18T13:48:32.524Z,29.40
2019-05-18T13:51:01.543Z,29.60
2019-05-18T13:53:29.900Z,29.80
2019-05-18T13:55:58.681Z,29.90
2019-05-18T13:58:27.700Z,29.90
2019-05-18T14:00:56.641Z,29.70
2019-05-18T14:03:25.384Z,29.50
2019-05-18T14:05:54.562Z,29.20
2019-05-18T14:08:23.777Z,29.00
2019-05-18T14:10:52.270Z,28.60
2019-05-18T14:13:20.722Z,28.50
2019-05-18T14:15:49.074Z,28.20
2019-05-18T14:18:17.762Z,28.50
2019-05-18T14:20:46.625Z,28.90
2019-05-18T14:23:15.738Z,29.40
2019-05-18T14:25:46.207Z,29.80
2019-05-18T14:28:14.947Z,29.90
2019-05-18T14:30:43.971Z,30.10
2019-05-18T14:33:12.666Z,30.00
2019-05-18T14:35:41.429Z,30.00
2019-05-18T14:38:09.982Z,29.80
2019-05-18T14:40:38.471Z,29.80
2019-05-18T14:43:08.364Z,29.70
2019-05-18T14:45:38.839Z,30.00
2019-05-18T14:48:07.466Z,30.00
2019-05-18T14:50:36.217Z,29.70
2019-05-18T14:53:05.213Z,29.40
2019-05-18T14:55:34.180Z,29.30
2019-05-18T14:58:03.048Z,29.30
2019-05-18T15:00:31.662Z,29.40
2019-05-18T15:03:02.393Z,29.70
2019-05-18T15:05:31.114Z,30.00
2019-05-18T15:07:59.812Z,30.40
2019-05-18T15:10:28.148Z,30.70
2019-05-18T15:12:56.918Z,30.90
2019-05-18T15:15:25.569Z,31.30
2019-05-18T15:17:54.236Z,31.50
2019-05-18T15:20:22.953Z,31.60
2019-05-18T15:22:51.700Z,31.60
2019-05-18T15:25:20.633Z,31.60
2019-05-18T15:27:49.395Z,31.50
2019-05-18T15:30:18.700Z,31.50
2019-05-18T15:32:47.063Z,31.60
2019-05-18T15:35:16.745Z,31.60
2019-05-18T15:37:45.909Z,31.20
2019-05-18T15:40:15.204Z,30.90
2019-05-18T15:42:43.841Z,30.90
2019-05-18T15:45:15.888Z,30.80
2019-05-18T15:47:46.443Z,30.80
2019-05-18T15:50:16.091Z,31.10
2019-05-18T15:52:44.457Z,31.20
2019-05-18T15:55:13.504Z,31.20
2019-05-18T15:57:42.327Z,31.30
2019-05-18T16:00:14.045Z,31.40
2019-05-18T16:02:42.891Z,31.30
2019-05-18T16:05:13.049Z,31.30
2019-05-18T16:07:41.086Z,31.40
2019-05-18T16:10:11.943Z,31.60
2019-05-18T16:12:41.020Z,31.80
2019-05-18T16:15:11.298Z,31.80
2019-05-18T16:17:40.570Z,32.00
2019-05-18T16:20:10.656Z,31.90
2019-05-18T16:22:38.711Z,31.60
2019-05-18T16:25:08.026Z,31.40
2019-05-18T16:27:36.598Z,31.10
2019-05-18T16:30:05.722Z,30.90
2019-05-18T16:32:34.531Z,30.60
2019-05-18T16:35:03.175Z,30.30
2019-05-18T16:37:31.647Z,30.20
2019-05-18T16:40:01.142Z,30.30
2019-05-18T16:42:29.998Z,30.30
2019-05-18T16:44:59.016Z,30.30
2019-05-18T16:47:27.619Z,30.30
2019-05-18T16:49:58.692Z,30.40
2019-05-18T16:52:27.383Z,30.40
2019-05-18T16:54:56.097Z,30.40
2019-05-18T16:57:24.762Z,30.40
2019-05-18T16:59:53.107Z,30.50
2019-05-18T17:02:31.285Z,30.50
2019-05-18T17:04:52.656Z,30.20
2019-05-18T17:07:21.319Z,30.00
2019-05-18T17:09:50.043Z,30.00
2019-05-18T17:12:19.051Z,30.00
2019-05-18T17:14:47.989Z,29.80
2019-05-18T17:17:16.414Z,29.60
2019-05-18T17:19:45.186Z,29.60
2019-05-18T17:22:13.754Z,29.50
2019-05-18T17:24:42.481Z,29.50
2019-05-18T17:27:11.122Z,29.30
2019-05-18T17:29:40.766Z,29.20
2019-05-18T17:32:09.392Z,29.10
2019-05-18T17:34:38.135Z,28.90
2019-05-18T17:37:06.587Z,28.80
2019-05-18T17:39:35.018Z,28.60
2019-05-18T17:42:05.135Z,28.40
2019-05-18T17:44:34.066Z,28.40
2019-05-18T17:47:03.096Z,28.30
2019-05-18T17:49:31.525Z,28.10
2019-05-18T17:52:03.154Z,28.10
2019-05-18T17:54:32.200Z,27.80
2019-05-18T17:57:08.636Z,27.50
2019-05-18T17:59:31.050Z,27.70
2019-05-18T18:01:59.516Z,27.60
2019-05-18T18:04:27.895Z,27.60
2019-05-18T18:06:56.872Z,27.50
2019-05-18T18:09:25.605Z,27.50
2019-05-18T18:11:54.380Z,27.30
2019-05-18T18:14:22.927Z,27.30
2019-05-18T18:16:51.948Z,27.30
2019-05-18T18:19:20.967Z,27.20
2019-05-18T18:21:50.001Z,27.00
2019-05-18T18:24:18.617Z,26.80
2019-05-18T18:26:47.560Z,26.70
2019-05-18T18:29:16.028Z,26.50
2019-05-18T18:31:45.006Z,26.10
2019-05-18T18:34:13.677Z,26.10
2019-05-18T18:36:42.364Z,26.00
2019-05-18T18:39:11.470Z,25.90
2019-05-18T18:41:40.053Z,25.70
2019-05-18T18:44:08.834Z,25.50
2019-05-18T18:46:37.458Z,25.40
2019-05-18T18:49:06.092Z,25.30
2019-05-18T18:51:34.823Z,25.20
2019-05-18T18:54:05.217Z,25.20
2019-05-18T18:56:33.567Z,25.20
2019-05-18T18:59:02.076Z,25.00
2019-05-18T19:01:31.059Z,24.80
2019-05-18T19:03:59.765Z,24.70
2019-05-18T19:06:28.251Z,24.90
2019-05-18T19:08:56.828Z,24.70
2019-05-18T19:11:25.450Z,24.70
2019-05-18T19:13:53.888Z,24.70
2019-05-18T19:16:22.578Z,24.60
2019-05-18T19:18:51.253Z,24.50
2019-05-18T19:21:19.993Z,24.50
2019-05-18T19:23:48.946Z,24.40
2019-05-18T19:26:17.634Z,24.40
2019-05-18T19:28:46.013Z,24.30
2019-05-18T19:31:15.004Z,24.30
2019-05-18T19:33:43.988Z,24.30
2019-05-18T19:36:12.533Z,24.20
2019-05-18T19:38:42.472Z,24.10
2019-05-18T19:41:10.907Z,23.90
2019-05-18T19:43:39.413Z,23.80
2019-05-18T19:46:08.076Z,23.70
2019-05-18T19:48:37.379Z,23.60
2019-05-18T19:51:06.320Z,23.50
2019-05-18T19:53:35.661Z,23.50
2019-05-18T19:56:06.758Z,23.50
2019-05-18T19:58:35.496Z,23.50
2019-05-18T20:01:04.166Z,23.40
2019-05-18T20:03:32.564Z,23.50
2019-05-18T20:06:02.500Z,23.30
2019-05-18T20:08:31.488Z,23.20
2019-05-18T20:11:00.192Z,23.20
2019-05-18T20:13:29.114Z,23.10
2019-05-18T20:15:57.821Z,23.20
2019-05-18T20:18:26.797Z,23.20
2019-05-18T20:20:55.529Z,23.10
2019-05-18T20:23:24.307Z,23.10
2019-05-18T20:25:52.897Z,23.10
2019-05-18T20:28:24.080Z,23.10
2019-05-18T20:30:52.707Z,22.90
2019-05-18T20:33:21.357Z,22.90
2019-05-18T20:35:50.110Z,22.90
2019-05-18T20:38:18.769Z,22.90
2019-05-18T20:40:48.379Z,22.90
2019-05-18T20:43:16.788Z,22.80
2019-05-18T20:45:45.111Z,22.70
2019-05-18T20:48:16.795Z,22.70
2019-05-18T20:50:43.893Z,22.60
2019-05-18T20:53:12.412Z,22.50
2019-05-18T20:55:41.377Z,22.30
2019-05-18T20:58:11.654Z,22.20
2019-05-18T21:00:40.326Z,22.10
2019-05-18T21:03:09.376Z,22.00
2019-05-18T21:05:38.282Z,22.00
2019-05-18T21:08:06.673Z,21.90
2019-05-18T21:10:35.061Z,22.00
2019-05-18T21:13:04.673Z,22.00
2019-05-18T21:15:33.694Z,21.80
2019-05-18T21:18:02.665Z,21.70
2019-05-18T21:20:31.324Z,21.70
2019-05-18T21:22:59.769Z,21.60
2019-05-18T21:25:28.423Z,21.50
2019-05-18T21:27:57.125Z,21.50
2019-05-18T21:30:25.471Z,21.60
2019-05-18T21:32:54.137Z,21.50
2019-05-18T21:35:22.579Z,21.40
2019-05-18T21:37:51.305Z,21.40
2019-05-18T21:40:20.328Z,21.40
2019-05-18T21:42:49.216Z,21.30
2019-05-18T21:45:17.998Z,21.30
2019-05-18T21:47:46.804Z,21.30
2019-05-18T21:50:16.004Z,21.30
2019-05-18T21:52:44.463Z,21.20
2019-05-18T21:55:13.282Z,21.20
2019-05-18T21:57:42.900Z,21.20
2019-05-18T22:00:13.974Z,21.20
2019-05-18T22:02:42.522Z,21.20
2019-05-18T22:05:11.366Z,21.10
2019-05-18T22:07:39.831Z,21.20
2019-05-18T22:10:23.446Z,21.20
2019-05-18T22:12:39.348Z,21.10
2019-05-18T22:15:08.801Z,21.00
2019-05-18T22:17:56.901Z,21.00
2019-05-18T22:20:25.427Z,20.90
2019-05-18T22:22:54.069Z,20.80
2019-05-18T22:25:22.816Z,20.70
2019-05-18T22:27:51.453Z,20.70
2019-05-18T22:30:20.169Z,20.70
2019-05-18T22:32:49.103Z,20.60
2019-05-18T22:35:18.101Z,20.50
2019-05-18T22:37:46.810Z,20.40
2019-05-18T22:40:17.037Z,20.30
2019-05-18T22:42:45.692Z,20.30
2019-05-18T22:45:15.387Z,20.10
2019-05-18T22:47:44.118Z,20.20
2019-05-18T22:50:12.915Z,20.10
2019-05-18T22:52:41.527Z,20.10
2019-05-18T22:55:10.482Z,20.10
2019-05-18T22:57:39.076Z,20.10
2019-05-18T23:00:08.074Z,20.00
2019-05-18T23:02:38.146Z,20.00
2019-05-18T23:05:06.955Z,20.00
2019-05-18T23:07:35.595Z,20.00
2019-05-18T23:10:05.132Z,20.00
2019-05-18T23:12:33.931Z,20.00
2019-05-18T23:15:02.783Z,20.10
2019-05-18T23:17:31.278Z,20.00
2019-05-18T23:19:59.997Z,20.00
2019-05-18T23:22:29.606Z,19.90
2019-05-18T23:24:58.013Z,19.90
2019-05-18T23:27:26.691Z,19.80
2019-05-18T23:29:55.691Z,19.80
2019-05-18T23:32:24.329Z,19.80
2019-05-18T23:34:53.037Z,19.80
2019-05-18T23:37:21.684Z,19.80
2019-05-18T23:39:50.343Z,19.70
2019-05-18T23:42:20.019Z,19.70
2019-05-18T23:44:49.056Z,19.60
2019-05-18T23:47:17.620Z,19.60
2019-05-18T23:49:46.390Z,19.60
2019-05-18T23:52:15.093Z,19.60
2019-05-18T23:54:43.752Z,19.50
2019-05-18T23:57:12.162Z,19.60
2019-05-18T23:59:40.788Z,19.60
